createdAt,value
2022-08-11T00:00:39.830Z,77828.03
2022-08-11T00:03:08.293Z,77825.94
2022-08-11T00:05:47.304Z,77834.31
2022-08-11T00:08:29.396Z,77830.13
2022-08-11T00:11:05.263Z,77830.13
2022-08-11T00:13:37.646Z,77830.13
2022-08-11T00:16:05.489Z,77834.31
2022-08-11T00:18:41.177Z,77838.50
2022-08-11T00:21:08.458Z,77844.75
2022-08-11T00:23:41.281Z,77836.41
2022-08-11T00:26:08.293Z,77834.31
2022-08-11T00:28:35.842Z,77832.22
2022-08-11T00:31:07.895Z,77832.22
2022-08-11T00:33:41.276Z,77838.50
2022-08-11T00:36:14.348Z,77836.41
2022-08-11T00:38:42.318Z,77836.41
2022-08-11T00:41:29.518Z,77861.47
2022-08-11T00:44:14.701Z,77880.28
2022-08-11T00:47:05.362Z,77894.94
2022-08-11T00:50:10.294Z,77913.75
2022-08-11T00:53:03.715Z,77926.28
2022-08-11T00:56:04.191Z,77934.66
2022-08-11T00:59:04.577Z,77936.72
2022-08-11T01:02:12.464Z,77957.63
2022-08-11T01:04:42.265Z,77959.72
2022-08-11T01:08:02.797Z,77961.81
2022-08-11T01:10:08.254Z,77972.28
2022-08-11T01:12:47.788Z,77966.00
2022-08-11T01:15:37.406Z,77963.91
2022-08-11T01:18:22.457Z,77984.81
2022-08-11T01:21:07.755Z,77982.72
2022-08-11T01:23:43.056Z,77978.53
2022-08-11T01:26:43.567Z,77980.63
2022-08-11T01:29:34.337Z,77974.38
2022-08-11T01:32:22.693Z,77980.63
2022-08-11T01:35:01.456Z,77995.28
2022-08-11T01:38:08.131Z,77993.19
2022-08-11T01:40:55.285Z,78012.00
2022-08-11T01:44:13.050Z,78018.25
2022-08-11T01:46:46.829Z,78014.09
2022-08-11T01:50:07.711Z,78016.16
2022-08-11T01:52:35.269Z,78012.00
2022-08-11T01:55:38.807Z,78018.25
2022-08-11T01:58:36.265Z,78022.44
2022-08-11T02:01:31.708Z,78032.91
2022-08-11T02:04:24.567Z,78032.91
2022-08-11T02:07:02.547Z,78022.44
2022-08-11T02:09:28.910Z,78024.53
2022-08-11T02:12:01.749Z,78026.63
2022-08-11T02:14:41.369Z,78047.53
2022-08-11T02:17:48.826Z,78043.34
2022-08-11T02:20:41.176Z,78034.97
2022-08-11T02:24:04.509Z,78028.72
2022-08-11T02:26:36.754Z,78032.91
2022-08-11T02:29:23.804Z,78043.34
2022-08-11T02:32:33.628Z,78043.34
2022-08-11T02:35:18.955Z,78043.34
2022-08-11T02:38:17.531Z,78053.81
2022-08-11T02:41:30.526Z,78057.97
2022-08-11T02:44:10.308Z,78074.69
2022-08-11T02:47:03.515Z,78085.16
2022-08-11T02:50:06.155Z,78076.78
2022-08-11T02:52:42.918Z,78070.53
2022-08-11T02:55:45.962Z,78080.97
2022-08-11T02:58:15.366Z,78097.69
2022-08-11T03:00:57.212Z,78101.88
2022-08-11T03:03:33.249Z,78101.88
2022-08-11T03:06:10.111Z,78093.53
2022-08-11T03:08:53.120Z,78091.44
2022-08-11T03:12:04.858Z,78085.16
2022-08-11T03:14:56.527Z,78085.16
2022-08-11T03:17:29.622Z,78074.69
2022-08-11T03:20:22.119Z,78070.53
2022-08-11T03:23:03.653Z,78070.53
2022-08-11T03:26:19.516Z,78074.69
2022-08-11T03:29:01.957Z,78080.97
2022-08-11T03:31:34.887Z,78089.34
2022-08-11T03:34:12.688Z,78093.53
2022-08-11T03:37:15.186Z,78099.78
2022-08-11T03:40:03.772Z,78099.78
2022-08-11T03:42:55.674Z,78099.78
2022-08-11T03:45:26.608Z,78095.59
2022-08-11T03:48:19.539Z,78091.44
2022-08-11T03:50:51.958Z,78093.53
2022-08-11T03:53:45.450Z,78091.44
2022-08-11T03:56:19.168Z,78101.88
2022-08-11T03:59:21.041Z,78122.78
2022-08-11T04:02:22.762Z,78137.41
2022-08-11T04:04:54.783Z,78141.59
2022-08-11T04:07:58.673Z,78154.16
2022-08-11T04:10:51.338Z,78162.50
2022-08-11T04:13:51.582Z,78162.50
2022-08-11T04:16:41.429Z,78149.97
2022-08-11T04:19:26.450Z,78156.22
2022-08-11T04:22:01.960Z,78158.31
2022-08-11T04:24:53.165Z,78158.31
2022-08-11T04:27:59.682Z,78172.97
2022-08-11T04:30:37.650Z,78175.06
2022-08-11T04:33:38.120Z,78191.78
2022-08-11T04:36:41.310Z,78210.59
2022-08-11T04:39:34.586Z,78210.59
2022-08-11T04:42:31.802Z,78227.31
2022-08-11T04:45:39.900Z,78231.50
2022-08-11T04:48:38.584Z,78241.94
2022-08-11T04:52:01.626Z,78248.22
2022-08-11T04:54:55.841Z,78246.13
2022-08-11T04:58:29.442Z,78237.75
2022-08-11T05:01:25.274Z,78248.22
2022-08-11T05:04:49.707Z,78235.69
2022-08-11T05:07:31.447Z,78239.84
2022-08-11T05:10:19.716Z,78239.84
2022-08-11T05:13:33.888Z,78239.84
2022-08-11T05:16:27.283Z,78237.75
2022-08-11T05:19:16.208Z,78231.50
2022-08-11T05:22:14.860Z,78233.59
2022-08-11T05:25:04.511Z,78233.59
2022-08-11T05:28:04.696Z,78231.50
2022-08-11T05:30:50.976Z,78225.22
2022-08-11T05:33:55.064Z,78225.22
2022-08-11T05:36:32.291Z,78221.03
2022-08-11T05:39:21.822Z,78216.84
2022-08-11T05:42:30.215Z,78210.59
2022-08-11T05:45:28.651Z,78208.50
2022-08-11T05:48:34.028Z,78206.41
2022-08-11T05:51:25.850Z,78202.22
2022-08-11T05:54:28.928Z,78200.13
2022-08-11T05:57:00.223Z,78189.69
2022-08-11T05:59:28.477Z,78189.69
2022-08-11T06:02:00.331Z,78187.59
2022-08-11T06:04:28.395Z,78183.41
2022-08-11T06:07:08.901Z,78181.31
2022-08-11T06:09:37.800Z,78177.13
2022-08-11T06:12:08.294Z,78170.88
2022-08-11T06:14:35.816Z,78170.88
2022-08-11T06:17:05.191Z,78166.69
2022-08-11T06:19:51.351Z,78160.41
2022-08-11T06:22:20.758Z,78154.16
2022-08-11T06:24:57.260Z,78156.22
2022-08-11T06:27:24.614Z,78152.06
2022-08-11T06:29:55.101Z,78152.06
2022-08-11T06:32:27.932Z,78141.59
2022-08-11T06:35:16.027Z,78137.41
2022-08-11T06:38:01.269Z,78137.41
2022-08-11T06:40:36.493Z,78131.16
2022-08-11T06:43:21.907Z,78120.69
2022-08-11T06:45:57.278Z,78114.44
2022-08-11T06:48:24.761Z,78108.16
2022-08-11T06:51:19.418Z,78097.69
2022-08-11T06:54:04.558Z,78093.53
2022-08-11T06:57:29.309Z,78078.88
2022-08-11T07:00:03.744Z,78076.78
2022-08-11T07:02:37.634Z,78070.53
2022-08-11T07:05:34.278Z,78072.63
2022-08-11T07:08:34.469Z,78053.81
2022-08-11T07:11:42.705Z,78045.44
2022-08-11T07:14:32.755Z,78030.81
2022-08-11T07:17:01.782Z,78022.44
2022-08-11T07:19:47.939Z,78005.72
2022-08-11T07:22:33.924Z,77999.44
2022-08-11T07:25:28.737Z,77986.91
2022-08-11T07:28:21.015Z,77974.38
2022-08-11T07:30:51.894Z,77963.91
2022-08-11T07:34:05.231Z,77955.56
2022-08-11T07:36:13.754Z,77945.09
2022-08-11T07:38:47.262Z,77928.38
2022-08-11T07:41:15.965Z,77907.47
2022-08-11T07:43:42.842Z,77903.28
2022-08-11T07:46:30.106Z,77884.47
2022-08-11T07:49:15.924Z,77869.84
2022-08-11T07:52:02.085Z,77865.66
2022-08-11T07:54:29.030Z,77855.22
2022-08-11T07:57:08.942Z,77825.94
2022-08-11T08:00:03.477Z,77817.59
2022-08-11T08:02:49.950Z,77807.13
2022-08-11T08:05:36.252Z,77796.69
2022-08-11T08:08:21.662Z,77771.59
2022-08-11T08:11:06.946Z,77761.16
2022-08-11T08:13:52.328Z,77738.16
2022-08-11T08:16:38.067Z,77729.78
2022-08-11T08:19:05.114Z,77713.06
2022-08-11T08:21:32.189Z,77700.53
2022-08-11T08:23:58.814Z,77692.16
2022-08-11T08:26:51.598Z,77679.63
2022-08-11T08:29:37.477Z,77665.00
2022-08-11T08:32:04.482Z,77635.72
2022-08-11T08:34:32.433Z,77602.28
2022-08-11T08:37:00.652Z,77589.75
2022-08-11T08:39:27.226Z,77575.13
2022-08-11T08:41:56.624Z,77537.50
2022-08-11T08:44:41.414Z,77531.22
2022-08-11T08:47:13.098Z,77527.03
2022-08-11T08:49:48.987Z,77504.03
2022-08-11T08:52:30.981Z,77497.78
2022-08-11T08:55:03.508Z,77439.25
2022-08-11T08:57:39.407Z,77426.72
2022-08-11T09:00:13.824Z,77370.28
2022-08-11T09:02:41.355Z,77343.09
2022-08-11T09:05:10.000Z,77338.94
2022-08-11T09:07:39.694Z,77349.38
2022-08-11T09:10:08.501Z,77351.47
2022-08-11T09:12:38.344Z,77355.66
2022-08-11T09:15:07.957Z,77303.41
2022-08-11T09:17:45.063Z,77286.66
2022-08-11T09:20:15.044Z,77288.75
2022-08-11T09:26:08.787Z,77276.22
2022-08-11T09:28:36.765Z,77267.88
2022-08-11T09:31:04.093Z,77257.41
2022-08-11T09:33:31.520Z,77242.78
2022-08-11T09:35:58.564Z,77217.69
2022-08-11T09:38:49.421Z,77196.81
2022-08-11T09:41:16.459Z,77148.72
2022-08-11T09:44:04.393Z,77121.56
2022-08-11T09:46:33.125Z,77088.13
2022-08-11T09:49:01.456Z,77069.31
2022-08-11T09:51:31.815Z,77069.31
2022-08-11T09:54:02.887Z,77067.22
2022-08-11T09:56:48.890Z,77088.13
2022-08-11T09:59:18.278Z,77104.84
2022-08-11T10:01:50.962Z,77088.13
2022-08-11T10:04:21.714Z,77075.59
2022-08-11T10:07:03.420Z,77060.94
2022-08-11T10:09:38.637Z,77058.88
2022-08-11T10:12:09.980Z,77042.13
2022-08-11T10:15:02.613Z,76975.25
2022-08-11T10:17:32.173Z,76960.63
2022-08-11T10:20:04.756Z,76941.81
2022-08-11T10:22:50.385Z,76904.22
2022-08-11T10:25:36.069Z,76893.75
2022-08-11T10:28:32.776Z,76916.75
2022-08-11T10:31:12.506Z,76904.22
2022-08-11T10:34:00.335Z,76912.56
2022-08-11T10:36:28.972Z,76916.75
2022-08-11T10:38:56.532Z,76908.38
2022-08-11T10:42:01.840Z,76874.94
2022-08-11T10:44:29.679Z,76843.59
2022-08-11T10:47:14.844Z,76841.50
2022-08-11T10:49:42.133Z,76828.97
2022-08-11T10:52:27.270Z,76808.06
2022-08-11T10:55:12.488Z,76806.00
2022-08-11T10:58:04.940Z,76793.44
2022-08-11T11:00:32.370Z,76783.00
2022-08-11T11:03:16.830Z,76774.63
2022-08-11T11:06:27.423Z,76766.28
2022-08-11T11:08:58.768Z,76726.56
2022-08-11T11:11:49.984Z,76697.31
2022-08-11T11:14:46.128Z,76678.50
2022-08-11T11:17:35.370Z,76661.78
2022-08-11T11:20:04.027Z,76682.69
2022-08-11T11:22:40.883Z,76657.63
2022-08-11T11:25:35.239Z,76674.34
2022-08-11T11:28:13.780Z,76655.53
2022-08-11T11:30:56.579Z,76676.41
2022-08-11T11:34:06.969Z,76665.97
2022-08-11T11:36:35.288Z,76665.97
2022-08-11T11:39:01.998Z,76676.41
2022-08-11T11:41:28.721Z,76659.69
2022-08-11T11:44:01.404Z,76655.53
2022-08-11T11:46:30.264Z,76674.34
2022-08-11T11:48:57.454Z,76676.41
2022-08-11T11:51:24.282Z,76663.88
2022-08-11T11:53:51.595Z,76647.16
2022-08-11T11:56:18.862Z,76630.44
2022-08-11T11:59:04.512Z,76636.72
2022-08-11T12:01:32.997Z,76590.75
2022-08-11T12:04:01.377Z,76578.19
2022-08-11T12:06:28.255Z,76588.66
2022-08-11T12:08:56.437Z,76561.47
2022-08-11T12:11:43.706Z,76553.13
2022-08-11T12:14:11.351Z,76548.94
2022-08-11T12:16:40.576Z,76538.50
2022-08-11T12:19:13.513Z,76528.06
2022-08-11T12:22:03.448Z,76519.69
2022-08-11T12:24:50.416Z,76530.13
2022-08-11T12:27:25.131Z,76519.69
2022-08-11T12:29:55.726Z,76505.06
2022-08-11T12:32:24.873Z,76502.97
2022-08-11T12:34:52.015Z,76490.44
2022-08-11T12:37:23.777Z,76482.06
2022-08-11T12:40:42.801Z,76484.16
2022-08-11T12:43:24.230Z,76457.00
2022-08-11T12:46:10.236Z,76465.38
2022-08-11T12:49:02.929Z,76465.38
2022-08-11T12:52:13.965Z,76459.09
2022-08-11T12:54:49.705Z,76448.66
2022-08-11T12:57:38.712Z,76463.28
2022-08-11T13:00:25.142Z,76457.00
2022-08-11T13:03:10.992Z,76454.91
2022-08-11T13:05:44.255Z,76454.91
2022-08-11T13:08:15.194Z,76461.19
2022-08-11T13:11:01.292Z,76454.91
2022-08-11T13:13:54.824Z,76448.66
2022-08-11T13:16:15.190Z,76452.81
2022-08-11T13:18:42.928Z,76434.00
2022-08-11T13:21:20.812Z,76436.09
2022-08-11T13:24:01.955Z,76429.84
2022-08-11T13:26:47.370Z,76421.47
2022-08-11T13:29:23.593Z,76408.94
2022-08-11T13:31:51.006Z,76404.75
2022-08-11T13:34:18.463Z,76425.66
2022-08-11T13:36:47.728Z,76404.75
2022-08-11T13:39:14.309Z,76392.22
2022-08-11T13:41:44.063Z,76394.31
2022-08-11T13:44:15.818Z,76377.59
2022-08-11T13:46:46.688Z,76385.97
2022-08-11T13:49:16.282Z,76400.59
2022-08-11T13:51:43.460Z,76392.22
2022-08-11T13:54:13.515Z,76373.41
2022-08-11T13:56:42.953Z,76377.59
2022-08-11T13:59:10.312Z,76371.31
2022-08-11T14:02:19.728Z,76373.41
2022-08-11T14:04:35.495Z,76371.31
2022-08-11T14:07:10.814Z,76379.69
2022-08-11T14:09:43.457Z,76373.41
2022-08-11T14:12:33.331Z,76371.31
2022-08-11T14:15:08.119Z,76369.25
2022-08-11T14:17:48.372Z,76371.31
2022-08-11T14:20:39.565Z,76367.16
2022-08-11T14:23:04.578Z,76367.16
2022-08-11T14:26:01.262Z,76348.34
2022-08-11T14:28:31.607Z,76360.88
2022-08-11T14:31:01.776Z,76360.88
2022-08-11T14:33:58.504Z,76360.88
2022-08-11T14:36:15.931Z,76375.50
2022-08-11T14:38:42.744Z,76373.41
2022-08-11T14:41:28.219Z,76354.63
2022-08-11T14:44:15.331Z,76362.97
2022-08-11T14:47:01.543Z,76362.97
2022-08-11T14:49:29.024Z,76344.16
2022-08-11T14:51:57.113Z,76342.06
2022-08-11T14:54:45.091Z,76350.44
2022-08-11T14:57:11.785Z,76339.97
2022-08-11T14:59:38.562Z,76331.63
2022-08-11T15:02:24.248Z,76331.63
2022-08-11T15:04:51.583Z,76335.81
2022-08-11T15:07:18.923Z,76323.28
2022-08-11T15:10:11.904Z,76321.19
2022-08-11T15:12:33.617Z,76331.63
2022-08-11T15:15:19.961Z,76333.72
2022-08-11T15:17:48.905Z,76317.00
2022-08-11T15:20:37.179Z,76323.28
2022-08-11T15:23:22.850Z,76327.44
2022-08-11T15:26:16.889Z,76335.81
2022-08-11T15:29:08.673Z,76337.91
2022-08-11T15:31:55.766Z,76342.06
2022-08-11T15:34:44.587Z,76344.16
2022-08-11T15:37:29.993Z,76323.28
2022-08-11T15:40:37.884Z,76327.44
2022-08-11T15:43:29.188Z,76327.44
2022-08-11T15:46:02.154Z,76325.34
2022-08-11T15:48:56.104Z,76325.34
2022-08-11T15:51:33.572Z,76331.63
2022-08-11T15:54:09.362Z,76333.72
2022-08-11T15:56:41.623Z,76321.19
2022-08-11T15:59:41.840Z,76344.16
2022-08-11T16:02:28.094Z,76362.97
2022-08-11T16:04:55.592Z,76371.31
2022-08-11T16:07:27.229Z,76367.16
2022-08-11T16:10:00.237Z,76390.13
2022-08-11T16:12:30.917Z,76392.22
2022-08-11T16:15:22.451Z,76377.59
2022-08-11T16:17:52.214Z,76388.03
2022-08-11T16:20:23.891Z,76383.88
2022-08-11T16:23:00.345Z,76394.31
2022-08-11T16:27:02.258Z,76383.88
2022-08-11T16:28:16.997Z,76396.41
2022-08-11T16:30:46.320Z,76406.84
2022-08-11T16:33:48.128Z,76406.84
2022-08-11T16:36:18.539Z,76413.13
2022-08-11T16:38:45.901Z,76400.59
2022-08-11T16:41:14.510Z,76408.94
2022-08-11T16:44:05.496Z,76436.09
2022-08-11T16:46:51.265Z,76450.72
2022-08-11T16:49:25.480Z,76434.00
2022-08-11T16:51:52.578Z,76448.66
2022-08-11T16:54:19.613Z,76459.09
2022-08-11T16:56:51.492Z,76477.91
2022-08-11T16:59:27.216Z,76480.00
2022-08-11T17:02:05.539Z,76502.97
2022-08-11T17:04:59.070Z,76511.34
2022-08-11T17:07:48.055Z,76544.78
2022-08-11T17:10:51.847Z,76553.13
2022-08-11T17:13:24.328Z,76557.31
2022-08-11T17:16:06.573Z,76559.41
2022-08-11T17:18:45.462Z,76569.84
2022-08-11T17:21:14.705Z,76592.84
2022-08-11T17:23:49.964Z,76599.09
2022-08-11T17:26:24.559Z,76592.84
2022-08-11T17:28:59.476Z,76590.75
2022-08-11T17:31:45.533Z,76607.47
2022-08-11T17:34:31.705Z,76615.81
2022-08-11T17:37:00.104Z,76617.91
2022-08-11T17:39:29.337Z,76624.19
2022-08-11T17:42:14.947Z,76630.44
2022-08-11T17:44:59.681Z,76649.25
2022-08-11T17:47:45.607Z,76665.97
2022-08-11T17:50:16.775Z,76663.88
2022-08-11T17:53:04.345Z,76686.88
2022-08-11T17:55:51.889Z,76695.22
2022-08-11T17:58:39.513Z,76701.50
2022-08-11T18:01:09.345Z,76709.84
2022-08-11T18:03:39.746Z,76716.13
2022-08-11T18:06:12.682Z,76722.41
2022-08-11T18:09:02.903Z,76741.19
2022-08-11T18:12:06.679Z,76745.38
2022-08-11T18:14:56.539Z,76749.56
2022-08-11T18:17:41.953Z,76768.38
2022-08-11T18:20:27.725Z,76780.91
2022-08-11T18:23:14.086Z,76793.44
2022-08-11T18:26:02.841Z,76810.16
2022-08-11T18:28:56.507Z,76816.44
2022-08-11T18:31:42.639Z,76826.88
2022-08-11T18:34:29.736Z,76843.59
2022-08-11T18:37:26.144Z,76849.88
2022-08-11T18:40:22.927Z,76864.50
2022-08-11T18:43:08.264Z,76877.03
2022-08-11T18:46:05.288Z,76889.59
2022-08-11T18:48:53.692Z,76902.13
2022-08-11T18:51:39.681Z,76914.66
2022-08-11T18:54:28.289Z,76931.38
2022-08-11T18:57:15.366Z,76935.56
2022-08-11T19:00:02.412Z,76946.00
2022-08-11T19:02:50.124Z,76964.81
2022-08-11T19:06:37.072Z,76971.09
2022-08-11T19:08:54.235Z,76983.63
2022-08-11T19:11:42.689Z,76996.16
2022-08-11T19:14:32.788Z,77008.69
2022-08-11T19:17:44.619Z,77017.06
2022-08-11T19:20:27.265Z,77035.88
2022-08-11T19:23:13.972Z,77040.06
2022-08-11T19:25:59.330Z,77054.69
2022-08-11T19:28:44.478Z,77067.22
2022-08-11T19:31:29.439Z,77073.50
2022-08-11T19:34:15.439Z,77083.94
2022-08-11T19:37:01.058Z,77096.47
2022-08-11T19:39:46.948Z,77102.75
2022-08-11T19:42:32.327Z,77109.03
2022-08-11T19:45:19.387Z,77106.94
2022-08-11T19:48:30.764Z,77123.66
2022-08-11T19:51:11.174Z,77127.84
2022-08-11T19:53:56.670Z,77127.84
2022-08-11T19:56:41.949Z,77134.09
2022-08-11T19:59:27.417Z,77140.38
2022-08-11T20:02:13.489Z,77152.91
2022-08-11T20:04:59.674Z,77148.72
2022-08-11T20:07:45.213Z,77159.19
2022-08-11T20:10:32.890Z,77159.19
2022-08-11T20:13:21.556Z,77169.63
2022-08-11T20:16:07.358Z,77178.00
2022-08-11T20:18:53.040Z,77184.25
2022-08-11T20:21:39.385Z,77190.53
2022-08-11T20:24:24.907Z,77194.72
2022-08-11T20:27:19.015Z,77205.16
2022-08-11T20:30:09.850Z,77209.34
2022-08-11T20:32:56.293Z,77219.78
2022-08-11T20:35:41.777Z,77226.06
2022-08-11T20:38:27.390Z,77217.69
2022-08-11T20:41:13.215Z,77228.16
2022-08-11T20:44:06.338Z,77230.25
2022-08-11T20:46:57.807Z,77240.69
2022-08-11T20:49:51.453Z,77238.59
2022-08-11T20:52:47.259Z,77246.97
2022-08-11T20:55:46.382Z,77251.13
2022-08-11T21:01:45.428Z,77261.59
2022-08-11T21:04:30.640Z,77263.69
2022-08-11T21:07:28.160Z,77267.88
2022-08-11T21:10:24.215Z,77269.94
2022-08-11T21:13:17.999Z,77272.03
2022-08-11T21:16:15.934Z,77278.31
2022-08-11T21:19:13.518Z,77282.50
2022-08-11T21:21:59.797Z,77290.84
2022-08-11T21:24:48.008Z,77292.94
2022-08-11T21:27:35.341Z,77292.94
2022-08-11T21:30:21.543Z,77292.94
2022-08-11T21:33:07.118Z,77297.13
2022-08-11T21:35:52.568Z,77303.41
2022-08-11T21:38:37.598Z,77299.22
2022-08-11T21:41:24.322Z,77299.22
2022-08-11T21:44:09.733Z,77307.56
2022-08-11T21:46:55.753Z,77305.47
2022-08-11T21:49:42.186Z,77311.75
2022-08-11T21:52:27.893Z,77320.13
2022-08-11T21:55:13.144Z,77328.47
2022-08-11T21:57:58.570Z,77332.66
2022-08-11T22:00:44.131Z,77338.94
2022-08-11T22:03:29.285Z,77332.66
2022-08-11T22:06:16.972Z,77336.84
2022-08-11T22:09:02.007Z,77336.84
2022-08-11T22:11:47.022Z,77338.94
2022-08-11T22:14:32.156Z,77347.28
2022-08-11T22:17:17.172Z,77347.28
2022-08-11T22:20:02.268Z,77349.38
2022-08-11T22:22:51.932Z,77347.28
2022-08-11T22:25:38.805Z,77347.28
2022-08-11T22:28:23.946Z,77349.38
2022-08-11T22:31:09.420Z,77351.47
2022-08-11T22:34:02.655Z,77351.47
2022-08-11T22:36:48.631Z,77353.56
2022-08-11T22:39:35.276Z,77355.66
2022-08-11T22:42:21.606Z,77357.72
2022-08-11T22:45:17.941Z,77355.66
2022-08-11T22:48:05.824Z,77357.72
2022-08-11T22:50:50.992Z,77364.00
2022-08-11T22:53:58.455Z,77359.81
2022-08-11T22:56:41.756Z,77359.81
2022-08-11T22:59:27.066Z,77366.09
2022-08-11T23:02:12.280Z,77361.91
2022-08-11T23:04:57.586Z,77364.00
2022-08-11T23:07:49.948Z,77368.19
2022-08-11T23:10:37.639Z,77370.28
2022-08-11T23:13:22.928Z,77374.47
2022-08-11T23:16:08.259Z,77376.53
2022-08-11T23:18:53.889Z,77382.81
2022-08-11T23:21:39.415Z,77376.53
2022-08-11T23:24:25.377Z,77382.81
2022-08-11T23:27:10.882Z,77378.63
2022-08-11T23:29:56.035Z,77395.34
2022-08-11T23:32:44.718Z,77410.00
2022-08-11T23:35:37.883Z,77418.34
2022-08-11T23:38:25.731Z,77424.63
2022-08-11T23:41:11.491Z,77414.16
2022-08-11T23:43:56.503Z,77412.06
2022-08-11T23:46:43.523Z,77405.81
2022-08-11T23:49:28.979Z,77412.06
2022-08-11T23:52:14.934Z,77405.81
2022-08-11T23:54:59.786Z,77414.16
2022-08-11T23:57:47.722Z,77405.81
